FOLSOM LAKE (FOL)

Elevation: 466' · AMERICAN R basin · Operator: US Bureau of Reclamation

Provisional data, subject to change.
Query executed Wednesday at 16:05:42   clock

Select a sensor type for a plot of data.
Note: Reservoir Flows are daily averages.

Earlier

Date RES ELE    STORAGE    RES CHG    TOC STO    ABV TOC    OUTFLOW    INFLOW    EVAP    FNF    RIV REL    PPT INC    SPILL    DC PUMP    DIS PWR   
 FEET   AF   AF   AF   AF   CFS   CFS   CFS   CFS   CFS   INCHES   CFS   CFS   CFS  
06/02/2015 420.12 528975 -3209 977000 -- 1947 329 0 464 e 0 0.00 0 0 1947
06/03/2015 419.79 526275 -2700 977000 -- 2081 720 0 464 e 0 0.00 0 65 2016
06/04/2015 419.49 523829 -2446 977000 -453171 2117 884 0 391 e 0 0.00 0 0 2117
06/05/2015 419.21 521546 -2283 977000 -- 2162 1011 0 391 e 0 0.00 0 131 2031
06/06/2015 418.98 519672 -1874 977000 -- 1985 1040 0 320 e 0 0.00 0 131 1854
06/07/2015 418.77 517976 -1696 977000 -459024 2059 1204 0 319 e 0 0.00 0 119 1940
06/08/2015 418.65 517006 -970 977000 -459994 2094 1605 0 840 e 0 0.00 0 105 1989
06/09/2015 418.47 515552 -1454 977000 -- 2166 1433 0 1066 e 0 0.00 0 131 2035
06/10/2015 418.17 513128 -2424 977000 -463872 2043 821 0 1065 e 0 0.00 0 147 1896
06/11/2015 417.86 510634 -2494 977000 -466366 2094 837 0 769 e 0 0.00 0 125 1969
06/12/2015 417.56 508233 -2401 977000 -- 2146 936 0 470 e 0 0.00 0 115 2031
06/13/2015 417.30 506152 -2081 977000 -- 2214 1165 0 742 e 0 0.00 0 119 2095
06/14/2015 417.00 503751 -2401 977000 -473249 2108 898 0 500 0 0.00 0 127 1981
06/15/2015 416.65 500976 -2775 977000 -476024 2121 722 0 303 e 0 0.00 0 146 1975
06/16/2015 416.23 497646 -3330 977000 -479354 2107 428 0 229 0 0.00 0 147 1960
06/17/2015 415.58 492523 -5123 977000 -484477 3127 544 0 170 e 0 0.00 0 118 3009
06/18/2015 414.99 487890 -4633 977000 -489110 2955 619 0 166 0 0.00 0 132 2823
06/19/2015 414.54 484389 -3501 977000 -- 2531 766 0 211 0 0.00 0 133 2398
06/20/2015 414.01 480266 -4123 977000 -- 2873 794 0 150 e 0 0.00 0 93 2780
06/21/2015 413.54 476644 -3622 977000 -500356 2704 878 0 150 e 0 0.00 0 126 2578
06/22/2015 412.98 472330 -4314 977000 -504670 2713 538 0 129 e 0 0.00 0 147 2566
06/23/2015 412.38 467752 -4578 977000 -509248 2825 517 0 70 e 0 0.00 0 23 2802
06/24/2015 411.77 463114 -4638 977000 -513886 2881 668 125 60 e 0 0.00 0 32 2849
06/25/2015 411.23 459034 -4080 977000 -517966 2822 854 89 60 e 0 0.00 0 32 2790
06/26/2015 410.76 455501 -3533 977000 -- 2700 1022 103 50 e 0 0.00 0 30 2670
06/27/2015 410.25 451685 -3816 977000 -- 2795 949 78 50 e 0 0.00 0 34 2761
06/28/2015 409.71 447668 -4017 977000 -- 2771 823 77 50 e 0 0.00 0 141 2630
06/29/2015 409.19 443818 -3850 977000 -533182 2539 675 77 386 0 0.00 0 34 2505
06/30/2015 408.46 438457 -5361 977000 -538543 3158 531 76 -- 0 0.00 0 36 3122
07/01/2015 -- -- -- -- -- -- -- -- -- -- -- -- -- --

Later | Latest

Warning! This data is preliminary and subject to revision.

Show FOL Map | Plot FOL Data | 1 Month FOL Data | Real-Time FOL Data | FOL Info